Langham, Canada
Current Conditions -  °F | °C
As of 6:00 PM on Wednesday 17 Dec 2014 (Local Time) from CYXE Reporting Station
Overcast Overcast  
Wind Chill:   Ceiling: 1500
Heat Index: 19°   Visibility: 15mi
Dew Point: 14°   Wind: 10mph
Humidity: 80%   Direction: 160°SSE
Pressure: 30.02"   Gusts: NA
Location:  52.36°N, 106.96°W
Report Text: CYXE 180000Z 16009KT 15SM OVC015 M07/M10 A3002 RMK SC8 SLP202
Loading
Personal Weather Stations






























Interactive Weather Map New forecast layout! Learn more

10-Day Weather Forecast

Advertisements
Track Severe Weather on mobile